EDT,Max TemperatureF,Mean TemperatureF,Min TemperatureF,Max Dew PointF,MeanDew PointF,Min DewpointF,Max Humidity, Mean Humidity, Min Humidity, Max Sea Level PressureIn, Mean Sea Level PressureIn, Min Sea Level PressureIn, Max VisibilityMiles, Mean VisibilityMiles, Min VisibilityMiles, Max Wind SpeedMPH, Mean Wind SpeedMPH, Max Gust SpeedMPH,PrecipitationIn, CloudCover, Events, WindDirDegrees
2012-5-1,54,49,44,46,43,30,92,68,44,30.12,30.06,30.01,10,7,2,16,5,24,0.71,8,Rain,105
2012-5-2,57,53,48,46,44,42,86,76,66,30.16,30.12,30.09,10,10,10,17,7,25,0.09,8,,122
2012-5-3,60,55,49,52,48,46,89,82,75,30.13,30.08,30.04,10,9,4,16,3,22,0.17,8,Rain,176
2012-5-4,73,63,53,61,55,49,93,80,66,30.05,29.92,29.86,10,10,5,16,3,22,0.10,7,Rain,240
2012-5-5,64,54,43,55,50,40,100,78,56,30.09,29.97,29.89,10,10,8,13,4,17,0.00,5,,271
2012-5-6,68,52,35,46,36,21,96,58,19,30.10,30.08,30.04,10,10,2,12,3,15,0.00,1,,335
2012-5-7,73,54,34,50,38,32,92,58,23,30.12,30.07,29.99,10,10,10,14,4,18,0.03,1,,188
2012-5-8,59,53,47,55,50,44,93,85,77,30.02,29.89,29.80,10,5,2,15,5,22,2.00,8,Rain,167
2012-5-9,66,60,53,59,56,54,100,87,73,29.80,29.71,29.59,10,5,0,13,1,22,0.11,8,Fog-Rain,311
2012-5-10,55,49,43,54,47,39,100,82,63,29.74,29.55,29.49,10,7,2,12,8,20,0.18,8,Rain,253
2012-5-11,64,51,38,39,35,30,89,60,30,30.07,29.90,29.75,10,10,10,16,7,24,0.00,3,,253
2012-5-12,76,55,33,46,38,32,96,61,25,30.19,30.13,30.08,10,10,10,16,4,22,0.00,0,,246
2012-5-13,78,63,47,56,49,44,93,63,33,30.17,30.11,30.06,10,10,10,10,2,17,0.00,2,,278
2012-5-14,72,64,55,61,57,52,93,80,66,30.15,30.12,30.06,10,8,1,21,2,28,0.50,7,Rain,211
2012-5-15,67,62,56,59,57,55,93,83,73,30.11,30.04,29.94,10,8,2,18,6,24,0.51,8,Rain,146
2012-5-16,79,66,52,63,57,43,100,71,42,29.96,29.87,29.75,10,8,0,16,4,24,0.25,6,Fog-Rain-Thunderstorm,214
2012-5-17,65,53,41,41,37,34,89,60,31,30.18,30.09,29.99,10,10,10,16,6,22,0.00,0,,281
2012-5-18,71,53,35,46,40,34,92,61,29,30.24,30.20,30.15,10,9,2,9,2,26,0.00,0,,237
2012-5-19,81,61,41,53,47,41,96,64,32,30.21,30.16,30.10,10,10,10,13,2,17,0.00,0,,232
2012-5-20,85,67,48,57,51,47,100,66,31,30.25,30.21,30.16,10,10,4,15,3,20,0.00,0,,152
2012-5-21,75,62,48,63,55,38,87,61,34,30.22,30.13,30.01,10,10,10,9,5,13,0.05,5,Rain,139
2012-5-22,71,66,61,63,61,59,100,87,73,30.02,29.89,29.82,10,7,2,5,1,13,0.44,8,Rain,135
2012-5-23,77,69,60,63,61,59,100,79,58,30.05,29.91,29.86,10,6,0,9,2,22,0.02,6,Fog-Rain,316
2012-5-24,76,67,58,63,59,57,100,82,64,30.18,30.12,30.05,10,6,0,16,5,20,0.01,5,Fog-Rain,148
2012-5-25,77,70,63,64,61,57,90,77,64,30.20,30.14,30.06,10,10,10,18,7,24,T,6,,168
2012-5-26,82,68,54,66,58,47,93,63,33,30.14,30.10,30.07,10,7,2,13,3,18,0.00,3,,246
2012-5-27,81,65,49,58,54,48,93,63,33,30.19,30.10,29.99,10,9,5,9,2,25,0.00,1,,347
2012-5-28,85,72,58,69,61,55,93,69,44,30.01,29.95,29.84,10,10,9,14,1,20,0.00,4,,208
2012-5-29,90,77,63,70,66,61,93,70,46,29.82,29.76,29.62,10,7,1,28,3,40,0.50,4,Rain-Thunderstorm,204
2012-5-30,78,70,61,64,61,49,100,69,38,29.77,29.74,29.71,10,7,1,8,2,13,0.09,6,Rain,175
2012-5-31,73,61,49,59,51,48,100,74,47,29.97,29.82,29.76,10,7,1,14,4,25,0.00,2,,259